createdAt,value
2018-06-27T00:02:26.971Z,16.90
2018-06-27T00:04:55.484Z,16.90
2018-06-27T00:07:23.091Z,17.00
2018-06-27T00:09:50.775Z,17.00
2018-06-27T00:12:18.396Z,17.10
2018-06-27T00:14:45.952Z,17.10
2018-06-27T00:17:13.495Z,17.10
2018-06-27T00:19:41.070Z,17.10
2018-06-27T00:22:09.219Z,17.10
2018-06-27T00:24:36.785Z,17.10
2018-06-27T00:27:04.364Z,17.10
2018-06-27T00:29:31.906Z,17.20
2018-06-27T00:32:00.040Z,17.10
2018-06-27T00:34:27.584Z,17.10
2018-06-27T00:36:55.117Z,17.00
2018-06-27T00:39:22.672Z,17.00
2018-06-27T00:41:50.287Z,16.90
2018-06-27T00:44:17.829Z,16.80
2018-06-27T00:46:45.365Z,16.80
2018-06-27T00:49:13.009Z,16.80
2018-06-27T00:51:40.550Z,16.80
2018-06-27T00:54:09.060Z,16.80
2018-06-27T00:56:40.599Z,16.80
2018-06-27T00:59:08.593Z,16.80
2018-06-27T01:01:36.625Z,16.80
2018-06-27T01:04:04.389Z,16.80
2018-06-27T01:06:32.893Z,16.80
2018-06-27T01:09:00.459Z,16.70
2018-06-27T01:11:28.040Z,16.70
2018-06-27T01:13:55.588Z,16.70
2018-06-27T01:16:23.516Z,16.70
2018-06-27T01:18:51.212Z,16.70
2018-06-27T01:21:18.809Z,16.70
2018-06-27T01:23:46.394Z,16.60
2018-06-27T01:26:14.280Z,16.60
2018-06-27T01:28:41.900Z,16.50
2018-06-27T01:31:09.486Z,16.50
2018-06-27T01:33:37.178Z,16.50
2018-06-27T01:36:04.977Z,16.40
2018-06-27T01:38:32.595Z,16.40
2018-06-27T01:41:00.171Z,16.30
2018-06-27T01:43:27.710Z,16.20
2018-06-27T01:45:55.317Z,16.20
2018-06-27T01:48:22.932Z,16.20
2018-06-27T01:50:50.508Z,16.10
2018-06-27T01:53:18.072Z,16.10
2018-06-27T01:55:45.600Z,16.00
2018-06-27T01:58:13.166Z,16.00
2018-06-27T02:00:40.744Z,16.00
2018-06-27T02:03:08.327Z,16.00
2018-06-27T02:05:35.906Z,15.90
2018-06-27T02:08:03.607Z,15.90
2018-06-27T02:10:31.174Z,15.90
2018-06-27T02:12:58.771Z,15.90
2018-06-27T02:15:26.665Z,15.80
2018-06-27T02:17:54.252Z,15.90
2018-06-27T02:20:21.838Z,15.80
2018-06-27T02:22:49.397Z,15.80
2018-06-27T02:25:17.032Z,15.80
2018-06-27T02:27:44.622Z,15.70
2018-06-27T02:30:12.192Z,15.70
2018-06-27T02:32:39.797Z,15.70
2018-06-27T02:35:07.575Z,15.70
2018-06-27T02:37:35.133Z,15.70
2018-06-27T02:40:02.809Z,15.60
2018-06-27T02:42:30.370Z,15.60
2018-06-27T02:44:57.923Z,15.60
2018-06-27T02:47:25.514Z,15.60
2018-06-27T02:49:53.212Z,15.50
2018-06-27T02:52:20.741Z,15.50
2018-06-27T02:54:48.349Z,15.50
2018-06-27T02:57:15.881Z,15.40
2018-06-27T02:59:43.462Z,15.40
2018-06-27T03:02:11.092Z,15.40
2018-06-27T03:04:38.631Z,15.40
2018-06-27T03:07:06.249Z,15.40
2018-06-27T03:09:33.936Z,15.30
2018-06-27T03:12:01.480Z,15.30
2018-06-27T03:14:29.023Z,15.30
2018-06-27T03:16:56.609Z,15.30
2018-06-27T03:19:24.177Z,15.30
2018-06-27T03:21:51.697Z,15.20
2018-06-27T03:24:19.282Z,15.20
2018-06-27T03:26:46.825Z,15.20
2018-06-27T03:29:14.415Z,15.10
2018-06-27T03:31:41.963Z,15.10
2018-06-27T03:34:09.517Z,15.10
2018-06-27T03:36:37.078Z,15.10
2018-06-27T03:39:07.511Z,15.00
2018-06-27T03:41:35.744Z,15.00
2018-06-27T03:44:03.335Z,15.00
2018-06-27T03:46:30.868Z,15.00
2018-06-27T03:48:58.407Z,15.00
2018-06-27T03:51:25.963Z,14.90
2018-06-27T03:53:58.519Z,14.90
2018-06-27T03:56:26.475Z,14.80
2018-06-27T03:58:54.076Z,14.90
2018-06-27T04:01:22.212Z,14.90
2018-06-27T04:03:49.763Z,14.90
2018-06-27T04:06:17.380Z,14.90
2018-06-27T04:08:44.955Z,14.80
2018-06-27T04:11:13.566Z,14.90
2018-06-27T04:13:41.200Z,14.90
2018-06-27T04:16:08.850Z,14.90
2018-06-27T04:18:36.478Z,14.90
2018-06-27T04:21:04.044Z,15.00
2018-06-27T04:23:31.631Z,15.00
2018-06-27T04:25:59.208Z,15.00
2018-06-27T04:28:26.787Z,15.00
2018-06-27T04:30:55.330Z,15.00
2018-06-27T04:33:22.907Z,15.10
2018-06-27T04:35:50.792Z,15.20
2018-06-27T04:38:18.641Z,15.20
2018-06-27T04:40:46.279Z,15.20
2018-06-27T04:43:13.916Z,15.30
2018-06-27T04:45:41.450Z,15.30
2018-06-27T04:48:09.182Z,15.40
2018-06-27T04:50:36.810Z,15.40
2018-06-27T04:53:04.380Z,15.50
2018-06-27T04:55:32.043Z,15.60
2018-06-27T04:57:59.642Z,15.60
2018-06-27T05:00:27.244Z,15.70
2018-06-27T05:02:54.827Z,15.80
2018-06-27T05:05:22.412Z,15.80
2018-06-27T05:07:49.994Z,15.90
2018-06-27T05:10:18.555Z,15.90
2018-06-27T05:12:46.175Z,16.00
2018-06-27T05:15:13.734Z,16.10
2018-06-27T05:17:41.328Z,16.20
2018-06-27T05:20:08.965Z,16.30
2018-06-27T05:22:36.525Z,16.30
2018-06-27T05:25:04.225Z,16.40
2018-06-27T05:27:31.843Z,16.50
2018-06-27T05:29:59.450Z,16.60
2018-06-27T05:32:27.035Z,16.70
2018-06-27T05:34:54.621Z,16.80
2018-06-27T05:37:22.174Z,16.90
2018-06-27T05:39:49.728Z,17.00
2018-06-27T05:42:17.308Z,17.10
2018-06-27T05:44:44.897Z,17.10
2018-06-27T05:47:12.532Z,17.20
2018-06-27T05:49:40.100Z,17.30
2018-06-27T05:52:07.720Z,17.40
2018-06-27T05:54:35.229Z,17.40
2018-06-27T05:57:02.827Z,17.50
2018-06-27T05:59:30.389Z,17.50
2018-06-27T06:01:57.959Z,17.60
2018-06-27T06:04:25.607Z,17.70
2018-06-27T06:06:53.218Z,17.70
2018-06-27T06:09:20.800Z,17.80
2018-06-27T06:11:48.393Z,17.90
2018-06-27T06:14:15.994Z,18.00
2018-06-27T06:16:43.576Z,18.00
2018-06-27T06:19:11.341Z,18.10
2018-06-27T06:21:38.920Z,18.20
2018-06-27T06:24:06.525Z,18.20
2018-06-27T06:26:34.139Z,18.30
2018-06-27T06:29:01.758Z,18.50
2018-06-27T06:31:29.339Z,18.60
2018-06-27T06:33:56.865Z,18.70
2018-06-27T06:36:24.410Z,18.80
2018-06-27T06:38:52.003Z,18.80
2018-06-27T06:41:19.646Z,18.90
2018-06-27T06:43:47.226Z,18.90
2018-06-27T06:46:14.838Z,19.00
2018-06-27T06:48:42.415Z,19.10
2018-06-27T06:51:09.954Z,19.20
2018-06-27T06:53:38.210Z,19.20
2018-06-27T06:56:05.780Z,19.30
2018-06-27T06:58:33.416Z,19.40
2018-06-27T07:01:01.042Z,19.50
2018-06-27T07:03:28.618Z,19.50
2018-06-27T07:05:56.184Z,19.60
2018-06-27T07:08:23.749Z,19.70
2018-06-27T07:10:51.339Z,19.80
2018-06-27T07:13:18.901Z,19.80
2018-06-27T07:15:46.499Z,19.90
2018-06-27T07:18:14.089Z,20.00
2018-06-27T07:20:41.665Z,20.00
2018-06-27T07:23:09.271Z,20.20
2018-06-27T07:25:36.828Z,20.20
2018-06-27T07:28:04.413Z,20.30
2018-06-27T07:30:31.964Z,20.40
2018-06-27T07:32:59.515Z,20.50
2018-06-27T07:35:27.115Z,20.60
2018-06-27T07:37:54.763Z,20.60
2018-06-27T07:40:22.329Z,20.70
2018-06-27T07:42:49.923Z,20.80
2018-06-27T07:45:17.535Z,21.00
2018-06-27T07:47:45.115Z,21.10
2018-06-27T07:50:12.739Z,21.10
2018-06-27T07:52:40.336Z,21.10
2018-06-27T07:55:07.991Z,21.10
2018-06-27T07:57:35.567Z,21.20
2018-06-27T08:00:04.140Z,21.40
2018-06-27T08:02:31.711Z,21.60
2018-06-27T08:04:59.292Z,21.80
2018-06-27T08:07:26.825Z,22.00
2018-06-27T08:09:54.507Z,22.20
2018-06-27T08:12:22.162Z,22.40
2018-06-27T08:14:49.758Z,22.80
2018-06-27T08:17:17.323Z,23.00
2018-06-27T08:19:44.940Z,23.20
2018-06-27T08:22:12.484Z,23.40
2018-06-27T08:24:40.012Z,23.60
2018-06-27T08:27:07.632Z,23.70
2018-06-27T08:29:35.930Z,23.70
2018-06-27T08:32:03.611Z,23.70
2018-06-27T08:34:31.236Z,23.60
2018-06-27T08:36:58.830Z,23.40
2018-06-27T08:39:26.392Z,23.20
2018-06-27T08:41:54.043Z,23.20
2018-06-27T08:44:22.224Z,23.10
2018-06-27T08:46:51.596Z,23.10
2018-06-27T08:49:19.250Z,23.10
2018-06-27T08:51:46.883Z,23.30
2018-06-27T08:54:14.456Z,23.40
2018-06-27T08:56:42.065Z,23.50
2018-06-27T08:59:09.629Z,23.60
2018-06-27T09:01:37.182Z,23.60
2018-06-27T09:04:04.799Z,23.50
2018-06-27T09:06:32.391Z,23.60
2018-06-27T09:08:59.945Z,23.60
2018-06-27T09:11:27.518Z,23.60
2018-06-27T09:13:55.065Z,23.60
2018-06-27T09:16:22.607Z,23.70
2018-06-27T09:18:50.222Z,23.80
2018-06-27T09:21:17.823Z,23.90
2018-06-27T09:23:45.409Z,24.20
2018-06-27T09:26:12.990Z,24.40
2018-06-27T09:28:40.595Z,24.50
2018-06-27T09:31:08.277Z,24.60
2018-06-27T09:33:35.803Z,24.80
2018-06-27T09:36:03.397Z,25.00
2018-06-27T09:38:30.987Z,25.00
2018-06-27T09:40:58.559Z,25.20
2018-06-27T09:43:26.222Z,25.20
2018-06-27T09:45:53.808Z,25.10
2018-06-27T09:48:21.384Z,25.20
2018-06-27T09:50:48.978Z,25.20
2018-06-27T09:53:23.146Z,25.50
2018-06-27T09:58:18.301Z,25.80
2018-06-27T10:00:45.889Z,25.90
2018-06-27T10:03:13.448Z,26.00
2018-06-27T10:05:41.028Z,25.80
2018-06-27T10:08:09.965Z,25.60
2018-06-27T10:10:39.169Z,25.60
2018-06-27T10:13:10.757Z,25.60
2018-06-27T10:15:41.381Z,25.30
2018-06-27T10:18:13.368Z,25.30
2018-06-27T10:20:40.973Z,25.40
2018-06-27T10:23:08.560Z,25.70
2018-06-27T10:25:36.160Z,26.10
2018-06-27T10:28:03.815Z,26.50
2018-06-27T10:30:31.385Z,26.80
2018-06-27T10:32:59.055Z,26.90
2018-06-27T10:37:54.175Z,26.50
2018-06-27T10:40:21.833Z,26.10
2018-06-27T10:42:49.439Z,25.90
2018-06-27T10:45:17.799Z,25.80
2018-06-27T10:47:45.950Z,26.00
2018-06-27T10:50:13.522Z,26.20
2018-06-27T10:52:41.043Z,26.30
2018-06-27T10:55:14.322Z,26.40
2018-06-27T10:57:41.896Z,26.40
2018-06-27T11:00:09.554Z,26.00
2018-06-27T11:02:37.133Z,25.70
2018-06-27T11:05:04.809Z,25.50
2018-06-27T11:09:59.967Z,25.50
2018-06-27T11:12:27.579Z,25.50
2018-06-27T11:14:55.112Z,25.40
2018-06-27T11:17:22.738Z,25.20
2018-06-27T11:19:50.316Z,25.10
2018-06-27T11:22:17.910Z,25.30
2018-06-27T11:24:45.476Z,25.70
2018-06-27T11:27:13.060Z,26.30
2018-06-27T11:29:40.660Z,26.80
2018-06-27T11:32:08.229Z,27.30
2018-06-27T11:34:36.317Z,27.50
2018-06-27T11:37:04.603Z,27.30
2018-06-27T11:41:59.705Z,26.60
2018-06-27T11:44:27.375Z,26.30
2018-06-27T11:46:55.601Z,26.20
2018-06-27T11:49:24.139Z,26.30
2018-06-27T11:51:53.270Z,29.10
2018-06-27T11:54:20.917Z,33.10
2018-06-27T11:56:49.174Z,36.70
2018-06-27T11:59:18.400Z,39.30
2018-06-27T12:01:46.032Z,41.00
2018-06-27T12:06:41.202Z,42.80
2018-06-27T12:09:10.155Z,42.00
2018-06-27T12:11:37.803Z,40.90
2018-06-27T12:14:06.073Z,42.40
2018-06-27T12:19:01.219Z,46.60
2018-06-27T12:21:28.761Z,47.60
2018-06-27T12:23:56.401Z,48.60
2018-06-27T12:26:24.038Z,49.70
2018-06-27T12:28:51.599Z,50.40
2018-06-27T12:31:19.176Z,51.20
2018-06-27T12:33:47.274Z,52.10
2018-06-27T12:36:15.441Z,50.60
2018-06-27T12:38:43.577Z,47.20
2018-06-27T12:41:11.192Z,45.50
2018-06-27T12:43:38.800Z,46.60
2018-06-27T12:46:06.512Z,48.20
2018-06-27T12:48:34.216Z,49.30
2018-06-27T12:51:01.819Z,48.00
2018-06-27T12:53:29.388Z,48.00
2018-06-27T12:55:56.975Z,49.50
2018-06-27T12:58:24.641Z,49.80
2018-06-27T13:00:52.308Z,48.80
2018-06-27T13:03:19.981Z,45.60
2018-06-27T13:05:47.603Z,43.60
2018-06-27T13:08:15.169Z,44.90
2018-06-27T13:10:42.782Z,44.60
2018-06-27T13:13:10.337Z,44.50
2018-06-27T13:15:38.020Z,45.70
2018-06-27T13:18:06.122Z,47.50
2018-06-27T13:20:33.733Z,47.30
2018-06-27T13:23:01.354Z,45.50
2018-06-27T13:25:28.899Z,45.70
2018-06-27T13:27:56.534Z,46.30
2018-06-27T13:30:24.155Z,45.60
2018-06-27T13:32:52.149Z,43.70
2018-06-27T13:35:19.714Z,43.10
2018-06-27T13:37:47.288Z,44.20
2018-06-27T13:40:14.917Z,45.70
2018-06-27T13:42:42.545Z,47.00
2018-06-27T13:45:10.105Z,47.90
2018-06-27T13:47:37.673Z,48.40
2018-06-27T13:50:05.396Z,48.70
2018-06-27T13:52:32.938Z,48.20
2018-06-27T13:55:00.620Z,47.80
2018-06-27T13:57:28.793Z,47.00
2018-06-27T14:02:25.331Z,43.40
2018-06-27T14:04:53.002Z,42.00
2018-06-27T14:09:48.082Z,38.80
2018-06-27T14:12:15.743Z,37.50
2018-06-27T14:14:43.399Z,37.00
2018-06-27T14:17:10.980Z,36.80
2018-06-27T14:19:38.549Z,36.00
2018-06-27T14:22:06.501Z,35.20
2018-06-27T14:24:34.927Z,34.40
2018-06-27T14:27:02.494Z,34.80
2018-06-27T14:29:30.108Z,36.20
2018-06-27T14:31:57.682Z,38.80
2018-06-27T14:34:26.297Z,38.90
2018-06-27T14:36:54.523Z,37.10
2018-06-27T14:39:24.512Z,35.30
2018-06-27T14:41:52.792Z,35.90
2018-06-27T14:44:20.512Z,37.10
2018-06-27T14:46:48.187Z,37.40
2018-06-27T14:49:15.893Z,38.00
2018-06-27T14:51:43.492Z,39.80
2018-06-27T14:54:11.114Z,41.80
2018-06-27T14:56:38.739Z,43.40
2018-06-27T14:59:06.359Z,44.90
2018-06-27T15:01:34.409Z,46.00
2018-06-27T15:04:02.022Z,46.40
2018-06-27T15:06:29.648Z,45.90
2018-06-27T15:08:57.264Z,45.60
2018-06-27T15:11:24.938Z,44.70
2018-06-27T15:13:52.586Z,42.70
2018-06-27T15:16:20.199Z,41.30
2018-06-27T15:18:47.821Z,41.30
2018-06-27T15:21:15.401Z,42.10
2018-06-27T15:23:42.998Z,43.30
2018-06-27T15:26:10.567Z,44.20
2018-06-27T15:28:38.112Z,44.80
2018-06-27T15:31:06.258Z,45.00
2018-06-27T15:33:33.847Z,44.00
2018-06-27T15:36:01.541Z,41.80
2018-06-27T15:38:29.281Z,39.40
2018-06-27T15:40:56.844Z,37.20
2018-06-27T15:43:24.435Z,35.30
2018-06-27T15:45:52.056Z,34.00
2018-06-27T15:48:19.684Z,32.90
2018-06-27T15:50:47.352Z,32.00
2018-06-27T15:53:14.993Z,31.10
2018-06-27T15:55:42.646Z,30.40
2018-06-27T15:58:12.818Z,29.70
2018-06-27T16:00:40.423Z,29.20
2018-06-27T16:03:08.031Z,29.10
2018-06-27T16:05:35.733Z,30.10
2018-06-27T16:08:03.581Z,30.50
2018-06-27T16:10:31.168Z,30.10
2018-06-27T16:12:58.769Z,30.30
2018-06-27T16:15:26.459Z,30.90
2018-06-27T16:17:54.073Z,30.70
2018-06-27T16:20:21.696Z,30.30
2018-06-27T16:22:49.322Z,29.80
2018-06-27T16:25:17.032Z,29.10
2018-06-27T16:27:44.626Z,29.10
2018-06-27T16:30:12.231Z,29.40
2018-06-27T16:32:39.811Z,29.60
2018-06-27T16:35:07.485Z,29.60
2018-06-27T16:37:35.059Z,29.70
2018-06-27T16:40:02.762Z,29.60
2018-06-27T16:42:30.340Z,29.60
2018-06-27T16:44:58.014Z,29.40
2018-06-27T16:47:25.601Z,29.20
2018-06-27T16:49:53.293Z,28.90
2018-06-27T16:52:20.896Z,28.50
2018-06-27T16:54:48.614Z,28.30
2018-06-27T16:57:16.230Z,28.20
2018-06-27T16:59:43.829Z,28.20
2018-06-27T17:04:39.159Z,28.30
2018-06-27T17:07:06.875Z,28.20
2018-06-27T17:09:34.449Z,28.10
2018-06-27T17:12:02.180Z,27.90
2018-06-27T17:14:29.786Z,27.70
2018-06-27T17:16:57.394Z,27.80
2018-06-27T17:19:25.064Z,27.70
2018-06-27T17:21:52.650Z,27.40
2018-06-27T17:24:20.307Z,27.10
2018-06-27T17:26:48.003Z,26.90
2018-06-27T17:29:15.727Z,26.60
2018-06-27T17:31:43.431Z,26.40
2018-06-27T17:34:11.031Z,26.10
2018-06-27T17:36:38.748Z,26.00
2018-06-27T17:39:07.860Z,25.80
2018-06-27T17:41:35.832Z,25.60
2018-06-27T17:44:03.945Z,25.50
2018-06-27T17:46:31.618Z,25.30
2018-06-27T17:48:59.265Z,25.20
2018-06-27T17:51:27.159Z,25.00
2018-06-27T17:53:54.936Z,24.90
2018-06-27T17:56:22.566Z,24.70
2018-06-27T17:58:50.246Z,24.50
2018-06-27T18:01:17.988Z,24.40
2018-06-27T18:03:45.997Z,24.30
2018-06-27T18:06:15.375Z,24.30
2018-06-27T18:08:43.106Z,24.20
2018-06-27T18:11:10.904Z,24.20
2018-06-27T18:13:38.571Z,24.20
2018-06-27T18:16:06.336Z,24.10
2018-06-27T18:18:34.058Z,24.00
2018-06-27T18:21:01.793Z,23.90
2018-06-27T18:25:57.160Z,23.70
2018-06-27T18:28:24.939Z,23.60
2018-06-27T18:30:52.643Z,23.50
2018-06-27T18:33:20.381Z,23.30
2018-06-27T18:35:48.100Z,23.20
2018-06-27T18:38:15.779Z,23.00
2018-06-27T18:40:43.539Z,22.90
2018-06-27T18:43:11.342Z,22.80
2018-06-27T18:45:39.147Z,22.70
2018-06-27T18:48:06.933Z,22.70
2018-06-27T18:50:34.592Z,22.60
2018-06-27T18:53:02.300Z,22.50
2018-06-27T18:55:30.061Z,22.50
2018-06-27T18:57:57.827Z,22.40
2018-06-27T19:00:25.596Z,22.40
2018-06-27T19:02:53.329Z,22.30
2018-06-27T19:05:21.104Z,22.20
2018-06-27T19:07:48.888Z,22.10
2018-06-27T19:10:16.683Z,22.00
2018-06-27T19:12:44.429Z,22.00
2018-06-27T19:15:12.195Z,21.90
2018-06-27T19:17:39.880Z,21.80
2018-06-27T19:20:07.664Z,21.70
2018-06-27T19:22:35.534Z,21.60
2018-06-27T19:25:03.441Z,21.60
2018-06-27T19:27:31.257Z,21.50
2018-06-27T19:29:58.997Z,21.40
2018-06-27T19:32:26.673Z,21.40
2018-06-27T19:34:54.324Z,21.30
2018-06-27T19:37:22.020Z,21.20
2018-06-27T19:39:49.747Z,21.20
2018-06-27T19:42:17.468Z,21.10
2018-06-27T19:44:45.279Z,21.10
2018-06-27T19:47:12.972Z,21.00
2018-06-27T19:49:40.678Z,20.90
2018-06-27T19:52:08.454Z,20.90
2018-06-27T19:54:36.193Z,20.90
2018-06-27T19:57:03.972Z,20.70
2018-06-27T19:59:31.680Z,20.70
2018-06-27T20:01:59.474Z,20.60
2018-06-27T20:04:27.255Z,20.50
2018-06-27T20:09:22.611Z,20.40
2018-06-27T20:11:50.253Z,20.40
2018-06-27T20:14:18.043Z,20.30
2018-06-27T20:16:46.692Z,20.30
2018-06-27T20:19:14.429Z,20.30
2018-06-27T20:21:42.052Z,20.30
2018-06-27T20:24:09.769Z,20.20
2018-06-27T20:26:37.424Z,20.20
2018-06-27T20:29:05.485Z,20.20
2018-06-27T20:31:33.081Z,20.10
2018-06-27T20:34:00.792Z,20.10
2018-06-27T20:36:28.426Z,20.00
2018-06-27T20:38:58.763Z,20.00
2018-06-27T20:41:26.374Z,19.90
2018-06-27T20:43:53.979Z,19.90
2018-06-27T20:46:21.621Z,19.70
2018-06-27T20:48:49.310Z,19.70
2018-06-27T20:51:16.918Z,19.70
2018-06-27T20:56:32.997Z,19.40
2018-06-27T20:59:03.074Z,19.40
2018-06-27T21:01:33.875Z,19.40
2018-06-27T21:04:01.488Z,19.30
2018-06-27T21:06:29.140Z,19.20
2018-06-27T21:08:56.729Z,19.20
2018-06-27T21:11:24.364Z,19.20
2018-06-27T21:13:52.005Z,19.10
2018-06-27T21:16:19.631Z,19.10
2018-06-27T21:18:47.305Z,19.00
2018-06-27T21:21:14.963Z,18.90
2018-06-27T21:23:42.515Z,18.90
2018-06-27T21:26:10.110Z,18.80
2018-06-27T21:28:37.692Z,18.70
2018-06-27T21:31:05.327Z,18.70
2018-06-27T21:33:32.920Z,18.60
2018-06-27T21:36:00.502Z,18.60
2018-06-27T21:38:32.186Z,18.50
2018-06-27T21:40:59.788Z,18.50
2018-06-27T21:43:27.466Z,18.50
2018-06-27T21:45:55.045Z,18.40
2018-06-27T21:48:22.616Z,18.30
2018-06-27T21:50:50.308Z,18.30
2018-06-27T21:53:17.799Z,18.20
2018-06-27T21:55:45.439Z,18.10
2018-06-27T21:58:13.189Z,18.10
2018-06-27T22:00:41.344Z,18.00
2018-06-27T22:03:09.593Z,18.00
2018-06-27T22:05:39.212Z,18.00
2018-06-27T22:08:06.838Z,17.90
2018-06-27T22:10:35.574Z,17.90
2018-06-27T22:13:03.195Z,17.80
2018-06-27T22:15:30.864Z,17.70
2018-06-27T22:17:58.466Z,17.70
2018-06-27T22:20:26.011Z,17.70
2018-06-27T22:22:53.602Z,17.60
2018-06-27T22:25:23.140Z,17.60
2018-06-27T22:27:51.680Z,17.60
2018-06-27T22:30:19.312Z,17.60
2018-06-27T22:32:46.982Z,17.50
2018-06-27T22:35:16.724Z,17.50
2018-06-27T22:37:46.183Z,17.50
2018-06-27T22:40:16.828Z,17.50
2018-06-27T22:42:46.996Z,17.50
2018-06-27T22:45:16.397Z,17.40
2018-06-27T22:47:45.878Z,17.30
2018-06-27T22:50:13.429Z,17.30
2018-06-27T22:52:41.567Z,17.30
2018-06-27T22:55:11.108Z,17.30
2018-06-27T22:57:41.888Z,17.20
2018-06-27T23:00:09.572Z,17.20
2018-06-27T23:02:40.007Z,17.20
2018-06-27T23:05:08.242Z,17.10
2018-06-27T23:10:09.284Z,17.10
2018-06-27T23:12:36.856Z,17.10
2018-06-27T23:15:04.489Z,17.00
2018-06-27T23:17:32.072Z,17.00
2018-06-27T23:19:59.619Z,17.00
2018-06-27T23:22:39.050Z,17.00
2018-06-27T23:25:06.631Z,16.90
2018-06-27T23:27:34.227Z,16.90
2018-06-27T23:30:01.894Z,16.90
2018-06-27T23:32:29.452Z,16.90
2018-06-27T23:34:57.027Z,16.90
2018-06-27T23:37:24.659Z,16.90
2018-06-27T23:39:52.228Z,16.90
2018-06-27T23:42:19.787Z,16.80
2018-06-27T23:44:47.445Z,16.80
2018-06-27T23:47:15.040Z,16.70
2018-06-27T23:49:42.713Z,16.70
2018-06-27T23:52:10.327Z,16.70
2018-06-27T23:54:37.960Z,16.70
2018-06-27T23:57:05.569Z,16.70
2018-06-27T23:59:33.164Z,16.70
